createdAt,value
2024-01-30T00:00:07.902Z,4.62
2024-01-30T00:01:07.959Z,4.62
2024-01-30T00:02:07.979Z,4.69
2024-01-30T00:03:07.842Z,4.69
2024-01-30T00:04:07.906Z,4.72
2024-01-30T00:05:07.810Z,4.69
2024-01-30T00:06:07.914Z,4.73
2024-01-30T00:07:07.801Z,4.72
2024-01-30T00:08:07.833Z,4.69
2024-01-30T00:09:07.799Z,4.70
2024-01-30T00:10:07.810Z,4.72
2024-01-30T00:11:07.826Z,4.76
2024-01-30T00:12:07.797Z,4.75
2024-01-30T00:13:07.735Z,4.70
2024-01-30T00:14:07.747Z,4.70
2024-01-30T00:15:07.740Z,4.70
2024-01-30T00:16:07.818Z,4.62
2024-01-30T00:17:07.820Z,4.64
2024-01-30T00:18:07.780Z,4.61
2024-01-30T00:19:10.161Z,4.65
2024-01-30T00:20:07.853Z,4.64
2024-01-30T00:21:07.685Z,4.67
2024-01-30T00:22:07.742Z,4.65
2024-01-30T00:23:09.227Z,4.64
2024-01-30T00:24:07.688Z,4.64
2024-01-30T00:25:07.612Z,4.65
2024-01-30T00:26:07.624Z,4.59
2024-01-30T00:27:07.592Z,4.64
2024-01-30T00:28:07.654Z,4.61
2024-01-30T00:29:07.637Z,4.61
2024-01-30T00:30:07.778Z,4.58
2024-01-30T00:31:07.602Z,4.58
2024-01-30T00:32:07.646Z,4.62
2024-01-30T00:33:07.610Z,4.62
2024-01-30T00:34:07.718Z,4.52
2024-01-30T00:35:08.520Z,4.50
2024-01-30T00:36:07.542Z,4.51
2024-01-30T00:37:08.318Z,4.51
2024-01-30T00:38:07.508Z,4.52
2024-01-30T00:39:07.433Z,4.52
2024-01-30T00:40:07.690Z,4.50
2024-01-30T00:41:07.544Z,4.47
2024-01-30T00:42:08.354Z,4.50
2024-01-30T00:43:08.119Z,4.51
2024-01-30T00:44:07.385Z,4.50
2024-01-30T00:45:07.370Z,4.54
2024-01-30T00:46:07.404Z,4.46
2024-01-30T00:47:07.344Z,4.46
2024-01-30T00:48:07.451Z,4.50
2024-01-30T00:49:07.496Z,4.50
2024-01-30T00:50:07.372Z,4.44
2024-01-30T00:51:07.341Z,4.54
2024-01-30T00:52:07.495Z,4.51
2024-01-30T00:53:07.331Z,4.51
2024-01-30T00:54:07.345Z,4.54
2024-01-30T00:55:07.343Z,4.55
2024-01-30T00:56:07.283Z,4.58
2024-01-30T00:57:07.238Z,4.51
2024-01-30T00:58:07.288Z,4.50
2024-01-30T00:59:07.267Z,4.47
2024-01-30T01:00:07.259Z,4.51
2024-01-30T01:01:07.264Z,4.51
2024-01-30T01:02:07.235Z,4.57
2024-01-30T01:03:07.238Z,4.57
2024-01-30T01:04:07.279Z,4.54
2024-01-30T01:05:07.307Z,4.54
2024-01-30T01:06:07.231Z,4.51
2024-01-30T01:07:07.306Z,4.51
2024-01-30T01:08:07.194Z,4.54
2024-01-30T01:09:07.130Z,4.51
2024-01-30T01:10:07.159Z,4.54
2024-01-30T01:11:07.140Z,4.54
2024-01-30T01:12:07.129Z,4.47
2024-01-30T01:13:07.164Z,4.43
2024-01-30T01:14:07.135Z,4.40
2024-01-30T01:15:07.171Z,4.42
2024-01-30T01:16:07.141Z,4.43
2024-01-30T01:17:07.084Z,4.44
2024-01-30T01:18:07.094Z,4.46
2024-01-30T01:19:07.169Z,4.47
2024-01-30T01:20:07.068Z,4.44
2024-01-30T01:21:07.069Z,4.44
2024-01-30T01:22:07.036Z,4.40
2024-01-30T01:23:07.403Z,4.40
2024-01-30T01:24:07.077Z,4.40
2024-01-30T01:25:07.038Z,4.42
2024-01-30T01:26:06.969Z,4.43
2024-01-30T01:27:07.026Z,4.46
2024-01-30T01:28:07.108Z,4.43
2024-01-30T01:29:06.933Z,4.44
2024-01-30T01:30:06.960Z,4.40
2024-01-30T01:31:07.276Z,4.40
2024-01-30T01:32:06.902Z,4.40
2024-01-30T01:33:06.985Z,4.39
2024-01-30T01:34:07.057Z,4.40
2024-01-30T01:35:07.519Z,4.42
2024-01-30T01:36:06.936Z,4.44
2024-01-30T01:37:06.950Z,4.47
2024-01-30T01:38:06.819Z,4.43
2024-01-30T01:39:06.847Z,4.36
2024-01-30T01:40:06.855Z,4.39
2024-01-30T01:41:06.891Z,4.40
2024-01-30T01:42:06.844Z,4.34
2024-01-30T01:43:06.902Z,4.37
2024-01-30T01:44:06.812Z,4.42
2024-01-30T01:45:06.845Z,4.42
2024-01-30T01:46:06.816Z,4.36
2024-01-30T01:47:06.753Z,4.36
2024-01-30T01:48:06.895Z,4.32
2024-01-30T01:49:06.912Z,4.25
2024-01-30T01:50:06.865Z,4.26
2024-01-30T01:51:06.725Z,4.34
2024-01-30T01:52:06.692Z,4.39
2024-01-30T01:53:06.687Z,4.33
2024-01-30T01:54:06.705Z,4.39
2024-01-30T01:55:06.726Z,4.36
2024-01-30T01:56:06.654Z,4.40
2024-01-30T01:57:06.631Z,4.37
2024-01-30T01:58:06.660Z,4.39
2024-01-30T01:59:06.618Z,4.40
2024-01-30T02:00:06.704Z,4.44
2024-01-30T02:01:06.688Z,4.50
2024-01-30T02:02:06.653Z,4.52
2024-01-30T02:03:06.608Z,4.57
2024-01-30T02:04:06.731Z,4.58
2024-01-30T02:05:06.602Z,4.51
2024-01-30T02:06:06.586Z,4.50
2024-01-30T02:07:06.954Z,4.52
2024-01-30T02:08:07.030Z,4.54
2024-01-30T02:09:06.903Z,4.57
2024-01-30T02:10:06.877Z,4.50
2024-01-30T02:11:06.498Z,4.47
2024-01-30T02:12:06.461Z,4.46
2024-01-30T02:13:06.537Z,4.42
2024-01-30T02:14:06.530Z,4.44
2024-01-30T02:15:06.580Z,4.50
2024-01-30T02:16:06.481Z,4.46
2024-01-30T02:17:06.474Z,4.47
2024-01-30T02:18:06.444Z,4.42
2024-01-30T02:19:06.477Z,4.39
2024-01-30T02:20:07.307Z,4.34
2024-01-30T02:21:06.500Z,4.29
2024-01-30T02:22:06.529Z,4.32
2024-01-30T02:23:06.386Z,4.32
2024-01-30T02:24:06.392Z,4.29
2024-01-30T02:25:06.857Z,4.28
2024-01-30T02:26:06.383Z,4.25
2024-01-30T02:27:06.361Z,4.25
2024-01-30T02:28:06.939Z,4.24
2024-01-30T02:29:06.881Z,4.28
2024-01-30T02:30:06.841Z,4.18
2024-01-30T02:31:06.901Z,4.16
2024-01-30T02:32:06.451Z,4.18
2024-01-30T02:33:06.446Z,4.18
2024-01-30T02:34:06.521Z,4.19
2024-01-30T02:35:06.366Z,4.15
2024-01-30T02:36:06.741Z,4.16
2024-01-30T02:37:06.381Z,4.12
2024-01-30T02:38:06.381Z,4.03
2024-01-30T02:39:06.763Z,4.03
2024-01-30T02:40:06.392Z,3.98
2024-01-30T02:41:06.277Z,3.98
2024-01-30T02:42:06.200Z,4.00
2024-01-30T02:43:06.288Z,3.97
2024-01-30T02:44:06.310Z,3.92
2024-01-30T02:45:06.270Z,3.86
2024-01-30T02:46:06.220Z,3.82
2024-01-30T02:47:06.105Z,3.83
2024-01-30T02:48:06.131Z,3.85
2024-01-30T02:49:06.174Z,3.90
2024-01-30T02:50:06.298Z,3.92
2024-01-30T02:51:06.086Z,3.92
2024-01-30T02:52:06.306Z,3.94
2024-01-30T02:53:06.076Z,3.92
2024-01-30T02:54:06.112Z,3.94
2024-01-30T02:55:06.132Z,3.94
2024-01-30T02:56:06.081Z,3.94
2024-01-30T02:57:06.071Z,3.98
2024-01-30T02:58:06.114Z,4.00
2024-01-30T02:59:06.021Z,4.03
2024-01-30T03:00:05.985Z,4.01
2024-01-30T03:01:06.034Z,3.97
2024-01-30T03:02:06.215Z,3.97
2024-01-30T03:03:06.010Z,3.88
2024-01-30T03:04:06.001Z,3.88
2024-01-30T03:05:06.479Z,3.85
2024-01-30T03:06:05.925Z,3.86
2024-01-30T03:07:05.962Z,3.88
2024-01-30T03:08:06.092Z,3.83
2024-01-30T03:09:06.062Z,3.78
2024-01-30T03:10:05.990Z,3.75
2024-01-30T03:11:05.944Z,3.79
2024-01-30T03:12:07.645Z,3.82
2024-01-30T03:13:05.873Z,3.85
2024-01-30T03:14:05.823Z,3.82
2024-01-30T03:15:05.870Z,3.86
2024-01-30T03:16:05.869Z,3.86
2024-01-30T03:17:05.806Z,3.88
2024-01-30T03:18:05.822Z,3.85
2024-01-30T03:19:05.967Z,3.86
2024-01-30T03:20:05.783Z,3.80
2024-01-30T03:21:05.801Z,3.71
2024-01-30T03:22:05.894Z,3.70
2024-01-30T03:23:05.760Z,3.65
2024-01-30T03:24:05.726Z,3.65
2024-01-30T03:25:05.773Z,3.65
2024-01-30T03:26:05.704Z,3.67
2024-01-30T03:27:05.729Z,3.70
2024-01-30T03:28:12.525Z,3.75
2024-01-30T03:29:12.411Z,3.70
2024-01-30T03:30:12.814Z,3.68
2024-01-30T03:31:13.381Z,3.68
2024-01-30T03:32:13.300Z,3.67
2024-01-30T03:33:12.272Z,3.67
2024-01-30T03:34:05.793Z,3.64
2024-01-30T03:35:05.828Z,3.64
2024-01-30T03:36:05.672Z,3.62
2024-01-30T03:37:05.707Z,3.68
2024-01-30T03:38:05.565Z,3.76
2024-01-30T03:39:05.602Z,3.75
2024-01-30T03:40:05.626Z,3.78
2024-01-30T03:41:05.638Z,3.80
2024-01-30T03:42:05.597Z,3.78
2024-01-30T03:43:05.636Z,3.76
2024-01-30T03:44:05.504Z,3.71
2024-01-30T03:45:05.527Z,3.70
2024-01-30T03:46:05.567Z,3.65
2024-01-30T03:47:06.086Z,3.65
2024-01-30T03:48:05.575Z,3.68
2024-01-30T03:49:05.564Z,3.70
2024-01-30T03:50:05.474Z,3.68
2024-01-30T03:51:05.474Z,3.62
2024-01-30T03:52:05.484Z,3.58
2024-01-30T03:53:05.481Z,3.60
2024-01-30T03:54:05.492Z,3.62
2024-01-30T03:55:05.476Z,3.67
2024-01-30T03:56:05.395Z,3.70
2024-01-30T03:57:05.389Z,3.75
2024-01-30T03:58:05.463Z,3.76
2024-01-30T03:59:05.442Z,3.70
2024-01-30T04:00:05.405Z,3.68
2024-01-30T04:01:05.418Z,3.70
2024-01-30T04:02:05.558Z,3.65
2024-01-30T04:03:05.358Z,3.64
2024-01-30T04:04:05.378Z,3.60
2024-01-30T04:05:05.437Z,3.57
2024-01-30T04:06:05.517Z,3.57
2024-01-30T04:07:05.292Z,3.61
2024-01-30T04:08:05.271Z,3.61
2024-01-30T04:09:05.265Z,3.60
2024-01-30T04:10:05.282Z,3.60
2024-01-30T04:11:05.337Z,3.62
2024-01-30T04:12:05.288Z,3.67
2024-01-30T04:13:05.902Z,3.70
2024-01-30T04:14:05.232Z,3.68
2024-01-30T04:15:05.260Z,3.65
2024-01-30T04:16:05.231Z,3.61
2024-01-30T04:17:05.222Z,3.60
2024-01-30T04:18:05.292Z,3.57
2024-01-30T04:19:05.189Z,3.61
2024-01-30T04:20:05.266Z,3.62
2024-01-30T04:21:05.128Z,3.61
2024-01-30T04:22:05.144Z,3.64
2024-01-30T04:23:05.186Z,3.64
2024-01-30T04:24:05.230Z,3.61
2024-01-30T04:25:05.310Z,3.58
2024-01-30T04:26:05.093Z,3.62
2024-01-30T04:27:05.060Z,3.62
2024-01-30T04:28:05.061Z,3.67
2024-01-30T04:29:05.130Z,3.65
2024-01-30T04:30:05.104Z,3.61
2024-01-30T04:31:05.037Z,3.54
2024-01-30T04:32:05.008Z,3.47
2024-01-30T04:33:05.044Z,3.47
2024-01-30T04:34:05.098Z,3.50
2024-01-30T04:35:08.900Z,3.57
2024-01-30T04:36:05.035Z,3.62
2024-01-30T04:37:04.997Z,3.62
2024-01-30T04:38:04.957Z,3.61
2024-01-30T04:39:04.962Z,3.61
2024-01-30T04:40:04.940Z,3.61
2024-01-30T04:41:05.025Z,3.58
2024-01-30T04:42:08.333Z,3.67
2024-01-30T04:43:04.970Z,3.62
2024-01-30T04:44:04.884Z,3.64
2024-01-30T04:45:04.889Z,3.64
2024-01-30T04:46:04.866Z,3.61
2024-01-30T04:47:04.898Z,3.65
2024-01-30T04:48:04.908Z,3.62
2024-01-30T04:49:04.906Z,3.61
2024-01-30T04:50:04.823Z,3.60
2024-01-30T04:51:04.821Z,3.60
2024-01-30T04:52:04.917Z,3.58
2024-01-30T04:53:04.886Z,3.62
2024-01-30T04:54:04.827Z,3.68
2024-01-30T04:55:04.902Z,3.72
2024-01-30T04:56:04.744Z,3.67
2024-01-30T04:57:04.767Z,3.68
2024-01-30T04:58:04.736Z,3.75
2024-01-30T04:59:04.781Z,3.75
2024-01-30T05:00:04.760Z,3.75
2024-01-30T05:01:04.877Z,3.70
2024-01-30T05:02:04.808Z,3.71
2024-01-30T05:03:04.700Z,3.75
2024-01-30T05:04:04.804Z,3.70
2024-01-30T05:05:04.929Z,3.71
2024-01-30T05:06:04.752Z,3.72
2024-01-30T05:07:04.811Z,3.71
2024-01-30T05:08:04.679Z,3.72
2024-01-30T05:09:04.607Z,3.71
2024-01-30T05:10:06.962Z,3.70
2024-01-30T05:11:04.756Z,3.67
2024-01-30T05:12:04.676Z,3.64
2024-01-30T05:13:04.689Z,3.62
2024-01-30T05:14:04.617Z,3.64
2024-01-30T05:15:04.543Z,3.65
2024-01-30T05:16:04.615Z,3.62
2024-01-30T05:17:04.634Z,3.61
2024-01-30T05:18:04.724Z,3.60
2024-01-30T05:19:04.706Z,3.65
2024-01-30T05:20:04.653Z,3.68
2024-01-30T05:21:04.595Z,3.67
2024-01-30T05:22:04.605Z,3.65
2024-01-30T05:23:04.569Z,3.70
2024-01-30T05:24:04.570Z,3.68
2024-01-30T05:25:04.601Z,3.61
2024-01-30T05:26:04.464Z,3.64
2024-01-30T05:27:04.418Z,3.60
2024-01-30T05:28:04.499Z,3.64
2024-01-30T05:29:04.520Z,3.65
2024-01-30T05:30:04.482Z,3.67
2024-01-30T05:31:04.541Z,3.68
2024-01-30T05:32:04.373Z,3.70
2024-01-30T05:33:04.445Z,3.71
2024-01-30T05:34:04.452Z,3.72
2024-01-30T05:35:04.448Z,3.71
2024-01-30T05:36:04.442Z,3.76
2024-01-30T05:37:04.491Z,3.75
2024-01-30T05:38:04.359Z,3.75
2024-01-30T05:39:06.980Z,3.75
2024-01-30T05:40:04.329Z,3.67
2024-01-30T05:41:04.378Z,3.64
2024-01-30T05:42:04.513Z,3.58
2024-01-30T05:43:04.469Z,3.60
2024-01-30T05:44:04.260Z,3.60
2024-01-30T05:45:04.276Z,3.60
2024-01-30T05:46:04.290Z,3.61
2024-01-30T05:47:04.308Z,3.62
2024-01-30T05:48:04.306Z,3.65
2024-01-30T05:49:04.238Z,3.70
2024-01-30T05:50:04.261Z,3.65
2024-01-30T05:51:04.287Z,3.61
2024-01-30T05:52:04.272Z,3.64
2024-01-30T05:53:04.263Z,3.70
2024-01-30T05:54:04.254Z,3.75
2024-01-30T05:55:04.280Z,3.75
2024-01-30T05:56:04.207Z,3.70
2024-01-30T05:57:09.527Z,3.71
2024-01-30T05:58:04.221Z,3.75
2024-01-30T05:59:05.075Z,3.72
2024-01-30T06:00:04.128Z,3.70
2024-01-30T06:01:04.277Z,3.67
2024-01-30T06:02:04.367Z,3.67
2024-01-30T06:03:04.140Z,3.61
2024-01-30T06:04:04.447Z,3.62
2024-01-30T06:05:04.285Z,3.65
2024-01-30T06:06:04.029Z,3.68
2024-01-30T06:07:04.164Z,3.71
2024-01-30T06:08:04.068Z,3.78
2024-01-30T06:09:03.998Z,3.78
2024-01-30T06:10:04.167Z,3.78
2024-01-30T06:11:04.017Z,3.78
2024-01-30T06:12:04.040Z,3.68
2024-01-30T06:13:04.040Z,3.65
2024-01-30T06:14:04.070Z,3.68
2024-01-30T06:15:04.018Z,3.72
2024-01-30T06:16:04.052Z,3.71
2024-01-30T06:17:04.064Z,3.78
2024-01-30T06:18:04.153Z,3.80
2024-01-30T06:19:04.647Z,3.83
2024-01-30T06:20:04.268Z,3.85
2024-01-30T06:21:04.042Z,3.83
2024-01-30T06:22:04.070Z,3.88
2024-01-30T06:23:03.800Z,3.90
2024-01-30T06:24:03.972Z,3.96
2024-01-30T06:25:03.864Z,3.89
2024-01-30T06:26:04.028Z,3.90
2024-01-30T06:27:03.823Z,3.92
2024-01-30T06:28:03.902Z,4.00
2024-01-30T06:29:04.385Z,4.00
2024-01-30T06:30:03.823Z,4.03
2024-01-30T06:31:03.807Z,4.06
2024-01-30T06:32:03.826Z,4.04
2024-01-30T06:33:03.798Z,4.04
2024-01-30T06:34:03.847Z,4.06
2024-01-30T06:35:03.751Z,4.10
2024-01-30T06:36:03.756Z,4.07
2024-01-30T06:37:03.766Z,4.07
2024-01-30T06:38:03.706Z,4.01
2024-01-30T06:39:03.670Z,4.06
2024-01-30T06:40:03.761Z,4.04
2024-01-30T06:41:04.177Z,3.97
2024-01-30T06:42:03.630Z,3.92
2024-01-30T06:43:03.709Z,3.97
2024-01-30T06:44:03.596Z,4.01
2024-01-30T06:45:03.609Z,4.06
2024-01-30T06:46:03.629Z,4.08
2024-01-30T06:47:03.557Z,4.08
2024-01-30T06:48:03.592Z,4.10
2024-01-30T06:49:03.579Z,4.19
2024-01-30T06:50:03.642Z,4.19
2024-01-30T06:51:03.582Z,4.18
2024-01-30T06:52:03.632Z,4.15
2024-01-30T06:53:03.530Z,4.18
2024-01-30T06:54:03.518Z,4.12
2024-01-30T06:55:03.717Z,4.12
2024-01-30T06:56:03.535Z,4.15
2024-01-30T06:57:03.429Z,4.14
2024-01-30T06:58:03.470Z,4.07
2024-01-30T06:59:03.516Z,4.01
2024-01-30T07:00:03.428Z,3.89
2024-01-30T07:01:03.539Z,3.82
2024-01-30T07:02:03.492Z,3.82
2024-01-30T07:03:03.428Z,3.79
2024-01-30T07:04:03.513Z,3.79
2024-01-30T07:05:03.515Z,3.83
2024-01-30T07:06:03.373Z,3.88
2024-01-30T07:07:03.512Z,3.92
2024-01-30T07:08:03.478Z,4.01
2024-01-30T07:09:03.412Z,4.03
2024-01-30T07:10:03.491Z,4.00
2024-01-30T07:11:03.313Z,4.04
2024-01-30T07:12:03.391Z,4.03
2024-01-30T07:13:03.287Z,4.01
2024-01-30T07:14:03.327Z,4.03
2024-01-30T07:15:03.302Z,4.04
2024-01-30T07:16:03.335Z,4.10
2024-01-30T07:17:03.324Z,4.14
2024-01-30T07:18:03.289Z,4.10
2024-01-30T07:19:03.376Z,4.14
2024-01-30T07:20:03.531Z,4.14
2024-01-30T07:21:03.223Z,4.21
2024-01-30T07:22:03.276Z,4.24
2024-01-30T07:23:03.293Z,4.19
2024-01-30T07:24:03.210Z,4.18
2024-01-30T07:25:03.222Z,4.22
2024-01-30T07:26:03.180Z,4.22
2024-01-30T07:27:03.263Z,4.25
2024-01-30T07:28:03.208Z,4.29
2024-01-30T07:29:03.209Z,4.33
2024-01-30T07:30:03.278Z,4.28
2024-01-30T07:31:03.170Z,4.33
2024-01-30T07:32:03.203Z,4.33
2024-01-30T07:33:03.170Z,4.34
2024-01-30T07:34:03.217Z,4.33
2024-01-30T07:35:08.118Z,4.37
2024-01-30T07:36:03.108Z,4.40
2024-01-30T07:37:03.151Z,4.43
2024-01-30T07:38:03.081Z,4.43
2024-01-30T07:39:03.075Z,4.44
2024-01-30T07:40:03.182Z,4.43
2024-01-30T07:41:03.059Z,4.43
2024-01-30T07:42:04.466Z,4.47
2024-01-30T07:43:03.189Z,4.50
2024-01-30T07:44:03.329Z,4.46
2024-01-30T07:45:03.896Z,4.47
2024-01-30T07:46:03.051Z,4.46
2024-01-30T07:47:02.994Z,4.43
2024-01-30T07:48:03.106Z,4.44
2024-01-30T07:49:02.997Z,4.43
2024-01-30T07:50:03.055Z,4.50
2024-01-30T07:51:03.302Z,4.57
2024-01-30T07:52:03.285Z,4.61
2024-01-30T07:53:09.674Z,4.59
2024-01-30T07:54:03.079Z,4.62
2024-01-30T07:55:02.884Z,4.69
2024-01-30T07:56:02.843Z,4.62
2024-01-30T07:57:02.900Z,4.62
2024-01-30T07:58:02.991Z,4.58
2024-01-30T07:59:02.869Z,4.57
2024-01-30T08:00:02.917Z,4.59
2024-01-30T08:01:02.951Z,4.59
2024-01-30T08:02:02.842Z,4.59
2024-01-30T08:03:02.885Z,4.62
2024-01-30T08:04:02.922Z,4.62
2024-01-30T08:05:02.857Z,4.61
2024-01-30T08:06:02.873Z,4.55
2024-01-30T08:07:02.986Z,4.61
2024-01-30T08:08:02.740Z,4.61
2024-01-30T08:09:02.729Z,4.62
2024-01-30T08:10:02.998Z,4.65
2024-01-30T08:11:02.725Z,4.61
2024-01-30T08:12:02.785Z,4.55
2024-01-30T08:13:02.740Z,4.55
2024-01-30T08:14:02.658Z,4.58
2024-01-30T08:15:02.654Z,4.59
2024-01-30T08:16:02.745Z,4.58
2024-01-30T08:17:02.715Z,4.58
2024-01-30T08:18:02.792Z,4.52
2024-01-30T08:19:02.802Z,4.58
2024-01-30T08:20:02.778Z,4.59
2024-01-30T08:21:02.715Z,4.62
2024-01-30T08:22:02.621Z,4.69
2024-01-30T08:23:02.596Z,4.72
2024-01-30T08:24:02.729Z,4.77
2024-01-30T08:25:02.657Z,4.84
2024-01-30T08:26:02.561Z,4.89
2024-01-30T08:27:02.565Z,4.88
2024-01-30T08:28:02.745Z,4.86
2024-01-30T08:29:02.643Z,4.89
2024-01-30T08:30:02.511Z,4.76
2024-01-30T08:31:02.621Z,4.69
2024-01-30T08:32:02.646Z,4.70
2024-01-30T08:33:02.792Z,4.59
2024-01-30T08:34:02.625Z,4.59
2024-01-30T08:35:02.763Z,4.65
2024-01-30T08:36:02.468Z,4.65
2024-01-30T08:37:02.467Z,4.70
2024-01-30T08:38:02.451Z,4.73
2024-01-30T08:39:05.102Z,4.77
2024-01-30T08:40:02.417Z,4.79
2024-01-30T08:41:02.431Z,4.83
2024-01-30T08:42:09.026Z,4.86
2024-01-30T08:45:19.119Z,4.94
2024-01-30T08:46:20.305Z,4.98
2024-01-30T08:47:20.192Z,4.98
2024-01-30T08:48:20.126Z,4.99
2024-01-30T08:49:20.183Z,5.01
2024-01-30T08:50:20.026Z,5.04
2024-01-30T08:51:20.058Z,5.01
2024-01-30T08:52:20.058Z,5.01
2024-01-30T08:53:20.096Z,5.02
2024-01-30T08:54:20.019Z,5.09
2024-01-30T08:55:20.181Z,5.14
2024-01-30T08:56:21.207Z,5.14
2024-01-30T08:57:20.029Z,5.13
2024-01-30T08:58:20.167Z,5.14
2024-01-30T08:59:20.014Z,5.12
2024-01-30T09:00:19.981Z,5.17
2024-01-30T09:01:20.299Z,5.19
2024-01-30T09:02:20.020Z,5.22
2024-01-30T09:03:20.016Z,5.27
2024-01-30T09:04:23.758Z,5.25
2024-01-30T09:05:19.941Z,5.28
2024-01-30T09:06:19.845Z,5.32
2024-01-30T09:07:20.189Z,5.34
2024-01-30T09:08:20.023Z,5.37
2024-01-30T09:09:19.986Z,5.45
2024-01-30T09:10:23.363Z,5.43
2024-01-30T09:11:21.373Z,5.41
2024-01-30T09:12:19.842Z,5.43
2024-01-30T09:13:20.002Z,5.49
2024-01-30T09:14:19.963Z,5.55
2024-01-30T09:15:20.140Z,5.59
2024-01-30T09:16:19.977Z,5.56
2024-01-30T09:17:20.202Z,5.56
2024-01-30T09:18:20.331Z,5.56
2024-01-30T09:19:20.025Z,5.59
2024-01-30T09:20:19.922Z,5.64
2024-01-30T09:21:20.404Z,5.64
2024-01-30T09:22:19.783Z,5.60
2024-01-30T09:23:20.148Z,5.64
2024-01-30T09:24:19.835Z,5.66
2024-01-30T09:25:20.047Z,5.66
2024-01-30T09:26:19.708Z,5.70
2024-01-30T09:27:19.737Z,5.73
2024-01-30T09:28:19.788Z,5.77
2024-01-30T09:29:19.651Z,5.74
2024-01-30T09:30:19.696Z,5.71
2024-01-30T09:31:22.663Z,5.71
2024-01-30T09:32:19.906Z,5.70
2024-01-30T09:33:19.640Z,5.71
2024-01-30T09:34:19.895Z,5.71
2024-01-30T09:35:20.225Z,5.70
2024-01-30T09:36:19.661Z,5.64
2024-01-30T09:37:19.736Z,5.67
2024-01-30T09:38:19.573Z,5.70
2024-01-30T09:39:19.570Z,5.74
2024-01-30T09:40:19.532Z,5.78
2024-01-30T09:41:19.630Z,5.78
2024-01-30T09:42:19.509Z,5.75
2024-01-30T09:43:19.527Z,5.77
2024-01-30T09:44:19.803Z,5.82
2024-01-30T09:45:20.866Z,5.85
2024-01-30T09:46:19.571Z,5.92
2024-01-30T09:47:19.460Z,5.95
2024-01-30T09:48:19.485Z,5.95
2024-01-30T09:49:21.187Z,5.92
2024-01-30T09:50:19.517Z,5.96
2024-01-30T09:51:19.561Z,6.00
2024-01-30T09:52:19.448Z,5.98
2024-01-30T09:53:19.409Z,6.01
2024-01-30T09:54:19.369Z,6.04
2024-01-30T09:55:19.587Z,6.10
2024-01-30T09:56:19.880Z,6.19
2024-01-30T09:57:19.310Z,6.22
2024-01-30T09:58:19.439Z,6.25
2024-01-30T09:59:19.350Z,6.26
2024-01-30T10:00:19.382Z,6.28
2024-01-30T10:01:19.468Z,6.29
2024-01-30T10:02:19.327Z,6.26
2024-01-30T10:03:19.343Z,6.26
2024-01-30T10:04:20.259Z,6.25
2024-01-30T10:05:19.418Z,6.28
2024-01-30T10:06:21.130Z,6.29
2024-01-30T10:07:19.478Z,6.30
2024-01-30T10:08:19.208Z,6.30
2024-01-30T10:09:19.224Z,6.35
2024-01-30T10:10:19.916Z,6.35
2024-01-30T10:11:19.411Z,6.43
2024-01-30T10:12:19.321Z,6.48
2024-01-30T10:13:19.294Z,6.50
2024-01-30T10:14:19.662Z,6.61
2024-01-30T10:15:36.555Z,6.63
2024-01-30T10:16:19.257Z,6.63
2024-01-30T10:17:28.525Z,6.61
2024-01-30T10:18:19.385Z,6.62
2024-01-30T10:19:20.648Z,6.66
2024-01-30T10:20:19.333Z,6.66
2024-01-30T10:21:19.089Z,6.71
2024-01-30T10:22:19.156Z,6.72
2024-01-30T10:23:19.099Z,6.76
2024-01-30T10:24:19.102Z,6.76
2024-01-30T10:25:19.310Z,6.79
2024-01-30T10:26:19.466Z,6.77
2024-01-30T10:27:19.063Z,6.77
2024-01-30T10:28:19.335Z,6.73
2024-01-30T10:29:19.107Z,6.77
2024-01-30T10:30:19.177Z,6.86
2024-01-30T10:31:21.551Z,6.80
2024-01-30T10:32:19.308Z,6.86
2024-01-30T10:33:19.314Z,6.81
2024-01-30T10:34:23.424Z,6.84
2024-01-30T10:35:20.063Z,6.87
2024-01-30T10:36:21.304Z,6.94
2024-01-30T10:37:21.312Z,6.91
2024-01-30T10:38:19.540Z,6.91
2024-01-30T10:39:28.109Z,6.97
2024-01-30T10:41:16.505Z,7.01
2024-01-30T10:41:53.648Z,6.98
2024-01-30T10:43:00.784Z,6.97
2024-01-30T10:43:56.439Z,6.94
2024-01-30T10:44:51.736Z,6.94
2024-01-30T10:45:53.911Z,6.91
2024-01-30T10:47:01.369Z,6.97
2024-01-30T10:49:18.592Z,7.05
2024-01-30T10:50:21.074Z,7.07
2024-01-30T10:51:18.046Z,7.12
2024-01-30T10:52:17.621Z,7.17
2024-01-30T10:53:17.239Z,7.19
2024-01-30T10:54:23.274Z,7.29
2024-01-30T10:55:18.986Z,7.34
2024-01-30T10:56:21.143Z,7.37
2024-01-30T10:57:18.167Z,7.40
2024-01-30T10:58:17.448Z,7.49
2024-01-30T10:59:17.224Z,7.49
2024-01-30T11:00:20.408Z,7.56
2024-01-30T11:01:18.208Z,7.58
2024-01-30T11:02:18.833Z,7.56
2024-01-30T11:03:17.792Z,7.58
2024-01-30T11:04:17.963Z,7.63
2024-01-30T11:05:17.442Z,7.62
2024-01-30T11:06:19.029Z,7.63
2024-01-30T11:07:18.540Z,7.67
2024-01-30T11:08:17.536Z,7.74
2024-01-30T11:09:19.516Z,7.77
2024-01-30T11:10:18.913Z,7.77
2024-01-30T11:11:18.555Z,7.84
2024-01-30T11:12:16.982Z,7.93
2024-01-30T11:13:16.878Z,7.99
2024-01-30T11:14:16.752Z,8.00
2024-01-30T11:15:16.749Z,8.04
2024-01-30T11:16:16.860Z,8.03
2024-01-30T11:17:16.864Z,8.02
2024-01-30T11:18:16.879Z,8.14
2024-01-30T11:19:17.533Z,8.17
2024-01-30T11:20:16.754Z,8.17
2024-01-30T11:21:16.683Z,8.14
2024-01-30T11:22:16.778Z,8.10
2024-01-30T11:23:16.650Z,8.12
2024-01-30T11:24:16.755Z,8.15
2024-01-30T11:25:16.708Z,8.18
2024-01-30T11:26:16.630Z,8.12
2024-01-30T11:27:16.624Z,8.12
2024-01-30T11:28:16.662Z,8.15
2024-01-30T11:29:16.685Z,8.22
2024-01-30T11:30:16.749Z,8.22
2024-01-30T11:31:16.744Z,8.14
2024-01-30T11:32:16.677Z,8.21
2024-01-30T11:33:17.991Z,8.22
2024-01-30T11:34:16.820Z,8.21
2024-01-30T11:35:17.263Z,8.25
2024-01-30T11:36:17.510Z,8.20
2024-01-30T11:37:16.845Z,8.11
2024-01-30T11:38:17.616Z,8.04
2024-01-30T11:39:17.310Z,8.07
2024-01-30T11:40:16.681Z,8.08
2024-01-30T11:41:17.205Z,8.14
2024-01-30T11:42:17.065Z,8.17
2024-01-30T11:43:17.011Z,8.17
2024-01-30T11:44:18.008Z,8.20
2024-01-30T11:45:17.908Z,8.26
2024-01-30T11:46:16.819Z,8.33
2024-01-30T11:47:16.644Z,8.29
2024-01-30T11:48:18.751Z,8.28
2024-01-30T11:49:16.834Z,8.22
2024-01-30T11:50:17.265Z,8.20
2024-01-30T11:51:16.867Z,8.21
2024-01-30T11:52:17.426Z,8.28
2024-01-30T11:53:17.746Z,8.32
2024-01-30T11:54:17.615Z,8.30
2024-01-30T11:55:19.084Z,8.35
2024-01-30T11:56:17.157Z,8.37
2024-01-30T11:57:16.874Z,8.40
2024-01-30T11:58:16.815Z,8.45
2024-01-30T11:59:17.545Z,8.40
2024-01-30T12:00:16.659Z,8.37
2024-01-30T12:01:16.578Z,8.35
2024-01-30T12:02:16.731Z,8.37
2024-01-30T12:03:16.637Z,8.45
2024-01-30T12:04:16.746Z,8.45
2024-01-30T12:05:17.046Z,8.42
2024-01-30T12:06:16.716Z,8.39
2024-01-30T12:07:16.554Z,8.32
2024-01-30T12:08:17.254Z,8.32
2024-01-30T12:09:19.199Z,8.29
2024-01-30T12:10:16.247Z,8.29
2024-01-30T12:11:19.603Z,8.33
2024-01-30T12:12:16.147Z,8.29
2024-01-30T12:13:17.846Z,8.29
2024-01-30T12:14:17.337Z,8.26
2024-01-30T12:15:16.414Z,8.25
2024-01-30T12:16:20.303Z,8.26
2024-01-30T12:17:16.509Z,8.29
2024-01-30T12:18:16.516Z,8.37
2024-01-30T12:19:16.165Z,8.39
2024-01-30T12:20:16.415Z,8.50
2024-01-30T12:21:16.062Z,8.53
2024-01-30T12:22:16.036Z,8.50
2024-01-30T12:23:15.973Z,8.55
2024-01-30T12:24:15.973Z,8.62
2024-01-30T12:25:16.114Z,8.60
2024-01-30T12:26:16.016Z,8.54
2024-01-30T12:27:15.970Z,8.55
2024-01-30T12:28:16.018Z,8.51
2024-01-30T12:29:15.927Z,8.54
2024-01-30T12:30:15.948Z,8.57
2024-01-30T12:31:15.981Z,8.55
2024-01-30T12:32:16.028Z,8.58
2024-01-30T12:33:15.992Z,8.62
2024-01-30T12:34:16.014Z,8.69
2024-01-30T12:35:16.184Z,8.68
2024-01-30T12:36:15.942Z,8.68
2024-01-30T12:37:15.996Z,8.68
2024-01-30T12:38:15.921Z,8.68
2024-01-30T12:39:15.843Z,8.66
2024-01-30T12:40:16.358Z,8.69
2024-01-30T12:41:15.801Z,8.76
2024-01-30T12:42:15.912Z,8.71
2024-01-30T12:43:24.332Z,8.66
2024-01-30T12:44:15.786Z,8.66
2024-01-30T12:45:15.767Z,8.72
2024-01-30T12:46:15.778Z,8.65
2024-01-30T12:47:15.730Z,8.57
2024-01-30T12:48:15.871Z,8.58
2024-01-30T12:49:15.827Z,8.69
2024-01-30T12:50:15.882Z,8.75
2024-01-30T12:51:15.769Z,8.79
2024-01-30T12:52:15.769Z,8.78
2024-01-30T12:53:15.702Z,8.62
2024-01-30T12:54:15.681Z,8.60
2024-01-30T12:55:15.817Z,8.63
2024-01-30T12:56:15.663Z,8.72
2024-01-30T12:57:15.691Z,8.69
2024-01-30T12:58:15.686Z,8.76
2024-01-30T12:59:15.740Z,8.73
2024-01-30T13:00:15.648Z,8.71
2024-01-30T13:01:15.681Z,8.72
2024-01-30T13:02:15.626Z,8.69
2024-01-30T13:03:15.671Z,8.68
2024-01-30T13:04:15.717Z,8.68
2024-01-30T13:05:15.923Z,8.72
2024-01-30T13:06:15.774Z,8.73
2024-01-30T13:07:15.487Z,8.75
2024-01-30T13:08:15.623Z,8.78
2024-01-30T13:09:16.231Z,8.86
2024-01-30T13:10:15.549Z,8.81
2024-01-30T13:11:21.019Z,8.76
2024-01-30T13:12:15.583Z,8.76
2024-01-30T13:13:19.886Z,8.76
2024-01-30T13:14:15.490Z,8.83
2024-01-30T13:15:15.495Z,8.88
2024-01-30T13:16:15.421Z,8.94
2024-01-30T13:17:15.429Z,9.02
2024-01-30T13:18:15.529Z,8.97
2024-01-30T13:19:15.455Z,8.94
2024-01-30T13:20:15.548Z,8.96
2024-01-30T13:21:15.387Z,8.93
2024-01-30T13:22:15.315Z,8.90